sensor_id;sensor_type;location;lat;lon;timestamp;temperature;humidity
41816;DHT22;27814;53.452;-6.180;2022-11-20T00:01:24;9.60;99.90
41816;DHT22;27814;53.452;-6.180;2022-11-20T00:03:55;9.50;99.90
41816;DHT22;27814;53.452;-6.180;2022-11-20T00:06:26;9.50;99.90
41816;DHT22;27814;53.452;-6.180;2022-11-20T00:08:56;9.50;99.90
41816;DHT22;27814;53.452;-6.180;2022-11-20T00:11:28;9.50;99.90
41816;DHT22;27814;53.452;-6.180;2022-11-20T00:13:59;9.50;99.90
41816;DHT22;27814;53.452;-6.180;2022-11-20T00:16:31;9.50;99.90
41816;DHT22;27814;53.452;-6.180;2022-11-20T00:18:59;9.50;99.90
41816;DHT22;27814;53.452;-6.180;2022-11-20T00:21:29;9.40;99.90
41816;DHT22;27814;53.452;-6.180;2022-11-20T00:23:58;9.50;99.90
41816;DHT22;27814;53.452;-6.180;2022-11-20T00:26:29;9.40;99.90
41816;DHT22;27814;53.452;-6.180;2022-11-20T00:28:58;9.40;99.90
41816;DHT22;27814;53.452;-6.180;2022-11-20T00:31:27;9.40;99.90
41816;DHT22;27814;53.452;-6.180;2022-11-20T00:33:56;9.40;99.90
41816;DHT22;27814;53.452;-6.180;2022-11-20T00:36:26;9.40;99.90
41816;DHT22;27814;53.452;-6.180;2022-11-20T00:38:56;9.40;99.90
41816;DHT22;27814;53.452;-6.180;2022-11-20T00:41:26;9.40;99.90
41816;DHT22;27814;53.452;-6.180;2022-11-20T00:43:56;9.40;99.90
41816;DHT22;27814;53.452;-6.180;2022-11-20T00:46:26;9.30;99.90
41816;DHT22;27814;53.452;-6.180;2022-11-20T00:48:55;9.30;99.90
41816;DHT22;27814;53.452;-6.180;2022-11-20T00:51:25;9.30;99.90
41816;DHT22;27814;53.452;-6.180;2022-11-20T00:53:55;9.30;99.90
41816;DHT22;27814;53.452;-6.180;2022-11-20T00:56:23;9.30;99.90
41816;DHT22;27814;53.452;-6.180;2022-11-20T00:58:52;9.20;99.90
41816;DHT22;27814;53.452;-6.180;2022-11-20T01:01:24;9.20;99.90
41816;DHT22;27814;53.452;-6.180;2022-11-20T01:03:54;9.20;99.90
41816;DHT22;27814;53.452;-6.180;2022-11-20T01:06:25;9.20;99.90
41816;DHT22;27814;53.452;-6.180;2022-11-20T01:08:55;9.10;99.90
41816;DHT22;27814;53.452;-6.180;2022-11-20T01:11:24;9.20;99.90
41816;DHT22;27814;53.452;-6.180;2022-11-20T01:13:54;9.20;99.90
41816;DHT22;27814;53.452;-6.180;2022-11-20T01:16:26;9.10;99.90
41816;DHT22;27814;53.452;-6.180;2022-11-20T01:18:57;9.10;99.90
41816;DHT22;27814;53.452;-6.180;2022-11-20T01:21:28;9.10;99.90
41816;DHT22;27814;53.452;-6.180;2022-11-20T01:23:57;9.10;99.90
41816;DHT22;27814;53.452;-6.180;2022-11-20T01:26:27;9.10;99.90
41816;DHT22;27814;53.452;-6.180;2022-11-20T01:28:57;9.10;99.90
41816;DHT22;27814;53.452;-6.180;2022-11-20T01:31:29;9.10;99.90
41816;DHT22;27814;53.452;-6.180;2022-11-20T01:33:59;9.10;99.90
41816;DHT22;27814;53.452;-6.180;2022-11-20T01:36:29;9.10;99.90
41816;DHT22;27814;53.452;-6.180;2022-11-20T01:38:59;9.10;99.90
41816;DHT22;27814;53.452;-6.180;2022-11-20T01:41:30;9.10;99.90
41816;DHT22;27814;53.452;-6.180;2022-11-20T01:44:18;9.10;99.90
41816;DHT22;27814;53.452;-6.180;2022-11-20T01:46:54;9.10;99.90
41816;DHT22;27814;53.452;-6.180;2022-11-20T01:49:27;9.10;99.90
41816;DHT22;27814;53.452;-6.180;2022-11-20T01:52:01;9.10;99.90
41816;DHT22;27814;53.452;-6.180;2022-11-20T01:54:35;9.00;99.90
41816;DHT22;27814;53.452;-6.180;2022-11-20T01:57:05;9.00;99.90
41816;DHT22;27814;53.452;-6.180;2022-11-20T01:59:36;9.00;99.90
41816;DHT22;27814;53.452;-6.180;2022-11-20T02:02:07;9.00;99.90
41816;DHT22;27814;53.452;-6.180;2022-11-20T02:04:35;9.00;99.90
41816;DHT22;27814;53.452;-6.180;2022-11-20T02:07:05;9.00;99.90
41816;DHT22;27814;53.452;-6.180;2022-11-20T02:09:34;9.00;99.90
41816;DHT22;27814;53.452;-6.180;2022-11-20T02:12:03;9.00;99.90
41816;DHT22;27814;53.452;-6.180;2022-11-20T02:14:31;9.00;99.90
41816;DHT22;27814;53.452;-6.180;2022-11-20T02:16:59;9.00;99.90
41816;DHT22;27814;53.452;-6.180;2022-11-20T02:19:31;9.00;99.90
41816;DHT22;27814;53.452;-6.180;2022-11-20T02:22:04;9.00;99.90
41816;DHT22;27814;53.452;-6.180;2022-11-20T02:24:35;9.00;99.90
41816;DHT22;27814;53.452;-6.180;2022-11-20T02:27:06;9.00;99.90
41816;DHT22;27814;53.452;-6.180;2022-11-20T02:29:38;9.10;99.90
41816;DHT22;27814;53.452;-6.180;2022-11-20T02:32:17;9.10;99.90
41816;DHT22;27814;53.452;-6.180;2022-11-20T02:34:46;9.10;99.90
41816;DHT22;27814;53.452;-6.180;2022-11-20T02:37:14;9.10;99.90
41816;DHT22;27814;53.452;-6.180;2022-11-20T02:39:46;9.10;99.90
41816;DHT22;27814;53.452;-6.180;2022-11-20T02:42:15;9.10;99.90
41816;DHT22;27814;53.452;-6.180;2022-11-20T02:44:43;9.10;99.90
41816;DHT22;27814;53.452;-6.180;2022-11-20T02:47:12;9.10;99.90
41816;DHT22;27814;53.452;-6.180;2022-11-20T02:49:40;9.10;99.90
41816;DHT22;27814;53.452;-6.180;2022-11-20T02:52:09;9.10;99.90
41816;DHT22;27814;53.452;-6.180;2022-11-20T02:54:37;9.10;99.90
41816;DHT22;27814;53.452;-6.180;2022-11-20T02:57:07;9.10;99.90
41816;DHT22;27814;53.452;-6.180;2022-11-20T02:59:35;9.10;99.90
41816;DHT22;27814;53.452;-6.180;2022-11-20T03:02:06;9.10;99.90
41816;DHT22;27814;53.452;-6.180;2022-11-20T03:04:35;9.00;99.90
41816;DHT22;27814;53.452;-6.180;2022-11-20T03:07:03;9.00;99.90
41816;DHT22;27814;53.452;-6.180;2022-11-20T03:09:31;9.00;99.90
41816;DHT22;27814;53.452;-6.180;2022-11-20T03:12:00;8.90;99.90
41816;DHT22;27814;53.452;-6.180;2022-11-20T03:14:29;8.90;99.90
41816;DHT22;27814;53.452;-6.180;2022-11-20T03:16:58;8.90;99.90
41816;DHT22;27814;53.452;-6.180;2022-11-20T03:19:26;8.90;99.90
41816;DHT22;27814;53.452;-6.180;2022-11-20T03:21:55;8.80;99.90
41816;DHT22;27814;53.452;-6.180;2022-11-20T03:24:23;8.80;99.90
41816;DHT22;27814;53.452;-6.180;2022-11-20T03:26:52;8.80;99.90
41816;DHT22;27814;53.452;-6.180;2022-11-20T03:29:20;8.70;99.90
41816;DHT22;27814;53.452;-6.180;2022-11-20T03:31:50;8.70;99.90
41816;DHT22;27814;53.452;-6.180;2022-11-20T03:34:19;8.70;99.90
41816;DHT22;27814;53.452;-6.180;2022-11-20T03:36:47;8.70;99.90
41816;DHT22;27814;53.452;-6.180;2022-11-20T03:39:15;8.70;99.90
41816;DHT22;27814;53.452;-6.180;2022-11-20T03:41:44;8.60;99.90
41816;DHT22;27814;53.452;-6.180;2022-11-20T03:44:12;8.60;99.90
41816;DHT22;27814;53.452;-6.180;2022-11-20T03:46:41;8.60;99.90
41816;DHT22;27814;53.452;-6.180;2022-11-20T03:49:10;8.60;99.90
41816;DHT22;27814;53.452;-6.180;2022-11-20T03:51:39;8.60;99.90
41816;DHT22;27814;53.452;-6.180;2022-11-20T03:54:08;8.50;99.90
41816;DHT22;27814;53.452;-6.180;2022-11-20T03:56:38;8.50;99.90
41816;DHT22;27814;53.452;-6.180;2022-11-20T03:59:09;8.50;99.90
41816;DHT22;27814;53.452;-6.180;2022-11-20T04:01:37;8.50;99.90
41816;DHT22;27814;53.452;-6.180;2022-11-20T04:04:14;8.40;99.90
41816;DHT22;27814;53.452;-6.180;2022-11-20T04:06:42;8.40;99.90
41816;DHT22;27814;53.452;-6.180;2022-11-20T04:09:10;8.40;99.90
41816;DHT22;27814;53.452;-6.180;2022-11-20T04:11:40;8.40;99.90
41816;DHT22;27814;53.452;-6.180;2022-11-20T04:14:13;8.30;99.90
41816;DHT22;27814;53.452;-6.180;2022-11-20T04:16:42;8.30;99.90
41816;DHT22;27814;53.452;-6.180;2022-11-20T04:19:14;8.40;99.90
41816;DHT22;27814;53.452;-6.180;2022-11-20T04:21:43;8.30;99.90
41816;DHT22;27814;53.452;-6.180;2022-11-20T04:24:12;8.30;99.90
41816;DHT22;27814;53.452;-6.180;2022-11-20T04:26:41;8.30;99.90
41816;DHT22;27814;53.452;-6.180;2022-11-20T04:29:11;8.30;99.90
41816;DHT22;27814;53.452;-6.180;2022-11-20T04:31:39;8.30;99.90
41816;DHT22;27814;53.452;-6.180;2022-11-20T04:34:10;8.30;99.90
41816;DHT22;27814;53.452;-6.180;2022-11-20T04:36:43;8.30;99.90
41816;DHT22;27814;53.452;-6.180;2022-11-20T04:39:12;8.30;99.90
41816;DHT22;27814;53.452;-6.180;2022-11-20T04:41:42;8.30;99.90
41816;DHT22;27814;53.452;-6.180;2022-11-20T04:44:10;8.30;99.90
41816;DHT22;27814;53.452;-6.180;2022-11-20T04:46:40;8.30;99.90
41816;DHT22;27814;53.452;-6.180;2022-11-20T04:49:10;8.30;99.90
41816;DHT22;27814;53.452;-6.180;2022-11-20T04:51:40;8.30;99.90
41816;DHT22;27814;53.452;-6.180;2022-11-20T04:54:10;8.30;99.90
41816;DHT22;27814;53.452;-6.180;2022-11-20T04:56:39;8.30;99.90
41816;DHT22;27814;53.452;-6.180;2022-11-20T04:59:07;8.30;99.90
41816;DHT22;27814;53.452;-6.180;2022-11-20T05:01:36;8.30;99.90
41816;DHT22;27814;53.452;-6.180;2022-11-20T05:04:04;8.30;99.90
41816;DHT22;27814;53.452;-6.180;2022-11-20T05:06:33;8.30;99.90
41816;DHT22;27814;53.452;-6.180;2022-11-20T05:09:03;8.30;99.90
41816;DHT22;27814;53.452;-6.180;2022-11-20T05:11:31;8.30;99.90
41816;DHT22;27814;53.452;-6.180;2022-11-20T05:14:00;8.30;99.90
41816;DHT22;27814;53.452;-6.180;2022-11-20T05:16:28;8.30;99.90
41816;DHT22;27814;53.452;-6.180;2022-11-20T05:18:57;8.30;99.90
41816;DHT22;27814;53.452;-6.180;2022-11-20T05:21:25;8.30;99.90
41816;DHT22;27814;53.452;-6.180;2022-11-20T05:23:54;8.30;99.90
41816;DHT22;27814;53.452;-6.180;2022-11-20T05:26:24;8.30;99.90
41816;DHT22;27814;53.452;-6.180;2022-11-20T05:28:52;8.30;99.90
41816;DHT22;27814;53.452;-6.180;2022-11-20T05:31:22;8.30;99.90
41816;DHT22;27814;53.452;-6.180;2022-11-20T05:33:55;8.30;99.90
41816;DHT22;27814;53.452;-6.180;2022-11-20T05:36:24;8.30;99.90
41816;DHT22;27814;53.452;-6.180;2022-11-20T05:38:52;8.30;99.90
41816;DHT22;27814;53.452;-6.180;2022-11-20T05:41:28;8.30;99.90
41816;DHT22;27814;53.452;-6.180;2022-11-20T05:43:57;8.30;99.90
41816;DHT22;27814;53.452;-6.180;2022-11-20T05:46:26;8.40;99.90
41816;DHT22;27814;53.452;-6.180;2022-11-20T05:48:56;8.30;99.90
41816;DHT22;27814;53.452;-6.180;2022-11-20T05:51:25;8.30;99.90
41816;DHT22;27814;53.452;-6.180;2022-11-20T05:53:55;8.30;99.90
41816;DHT22;27814;53.452;-6.180;2022-11-20T05:56:24;8.30;99.90
41816;DHT22;27814;53.452;-6.180;2022-11-20T05:58:54;8.30;99.90
41816;DHT22;27814;53.452;-6.180;2022-11-20T06:01:23;8.30;99.90
41816;DHT22;27814;53.452;-6.180;2022-11-20T06:03:53;8.30;99.90
41816;DHT22;27814;53.452;-6.180;2022-11-20T06:06:22;8.20;99.90
41816;DHT22;27814;53.452;-6.180;2022-11-20T06:08:52;8.20;99.90
41816;DHT22;27814;53.452;-6.180;2022-11-20T06:11:20;8.30;99.90
41816;DHT22;27814;53.452;-6.180;2022-11-20T06:13:49;8.20;99.90
41816;DHT22;27814;53.452;-6.180;2022-11-20T06:16:19;8.20;99.90
41816;DHT22;27814;53.452;-6.180;2022-11-20T06:18:48;8.20;99.90
41816;DHT22;27814;53.452;-6.180;2022-11-20T06:21:19;8.30;99.90
41816;DHT22;27814;53.452;-6.180;2022-11-20T06:23:48;8.20;99.90
41816;DHT22;27814;53.452;-6.180;2022-11-20T06:26:19;8.20;99.90
41816;DHT22;27814;53.452;-6.180;2022-11-20T06:28:48;8.20;99.90
41816;DHT22;27814;53.452;-6.180;2022-11-20T06:31:19;8.20;99.90
41816;DHT22;27814;53.452;-6.180;2022-11-20T06:33:48;8.20;99.90
41816;DHT22;27814;53.452;-6.180;2022-11-20T06:36:18;8.20;99.90
41816;DHT22;27814;53.452;-6.180;2022-11-20T06:38:47;8.20;99.90
41816;DHT22;27814;53.452;-6.180;2022-11-20T06:41:18;8.20;99.90
41816;DHT22;27814;53.452;-6.180;2022-11-20T06:43:47;8.20;99.90
41816;DHT22;27814;53.452;-6.180;2022-11-20T06:46:17;8.20;99.90
41816;DHT22;27814;53.452;-6.180;2022-11-20T06:48:48;8.20;99.90
41816;DHT22;27814;53.452;-6.180;2022-11-20T06:51:16;8.20;99.90
41816;DHT22;27814;53.452;-6.180;2022-11-20T06:53:45;8.30;99.90
41816;DHT22;27814;53.452;-6.180;2022-11-20T06:56:13;8.30;99.90
41816;DHT22;27814;53.452;-6.180;2022-11-20T06:58:42;8.30;99.90
41816;DHT22;27814;53.452;-6.180;2022-11-20T07:01:11;8.30;99.90
41816;DHT22;27814;53.452;-6.180;2022-11-20T07:03:41;8.30;99.90
41816;DHT22;27814;53.452;-6.180;2022-11-20T07:06:11;8.30;99.90
41816;DHT22;27814;53.452;-6.180;2022-11-20T07:08:39;8.30;99.90
41816;DHT22;27814;53.452;-6.180;2022-11-20T07:11:10;8.30;99.90
41816;DHT22;27814;53.452;-6.180;2022-11-20T07:13:39;8.30;99.90
41816;DHT22;27814;53.452;-6.180;2022-11-20T07:16:08;8.30;99.90
41816;DHT22;27814;53.452;-6.180;2022-11-20T07:18:37;8.30;99.90
41816;DHT22;27814;53.452;-6.180;2022-11-20T07:21:07;8.30;99.90
41816;DHT22;27814;53.452;-6.180;2022-11-20T07:23:37;8.30;99.90
41816;DHT22;27814;53.452;-6.180;2022-11-20T07:26:07;8.30;99.90
41816;DHT22;27814;53.452;-6.180;2022-11-20T07:28:36;8.30;99.90
41816;DHT22;27814;53.452;-6.180;2022-11-20T07:31:05;8.30;99.90
41816;DHT22;27814;53.452;-6.180;2022-11-20T07:33:34;8.30;99.90
41816;DHT22;27814;53.452;-6.180;2022-11-20T07:36:03;8.30;99.90
41816;DHT22;27814;53.452;-6.180;2022-11-20T07:38:32;8.30;99.90
41816;DHT22;27814;53.452;-6.180;2022-11-20T07:41:02;8.30;99.90
41816;DHT22;27814;53.452;-6.180;2022-11-20T07:43:30;8.30;99.90
41816;DHT22;27814;53.452;-6.180;2022-11-20T07:46:05;8.30;99.90
41816;DHT22;27814;53.452;-6.180;2022-11-20T07:48:34;8.30;99.90
41816;DHT22;27814;53.452;-6.180;2022-11-20T07:51:02;8.30;99.90
41816;DHT22;27814;53.452;-6.180;2022-11-20T07:53:31;8.40;99.90
41816;DHT22;27814;53.452;-6.180;2022-11-20T07:56:00;8.40;99.90
41816;DHT22;27814;53.452;-6.180;2022-11-20T07:58:31;8.30;99.90
41816;DHT22;27814;53.452;-6.180;2022-11-20T08:01:04;8.30;99.90
41816;DHT22;27814;53.452;-6.180;2022-11-20T08:03:33;8.30;99.90
41816;DHT22;27814;53.452;-6.180;2022-11-20T08:06:05;8.30;99.90
41816;DHT22;27814;53.452;-6.180;2022-11-20T08:08:33;8.40;99.90
41816;DHT22;27814;53.452;-6.180;2022-11-20T08:11:08;8.40;99.90
41816;DHT22;27814;53.452;-6.180;2022-11-20T08:13:55;8.40;99.90
41816;DHT22;27814;53.452;-6.180;2022-11-20T08:16:43;8.40;99.90
41816;DHT22;27814;53.452;-6.180;2022-11-20T08:19:12;8.50;99.90
41816;DHT22;27814;53.452;-6.180;2022-11-20T08:21:41;8.50;99.90
41816;DHT22;27814;53.452;-6.180;2022-11-20T08:24:10;8.50;99.90
41816;DHT22;27814;53.452;-6.180;2022-11-20T08:26:39;8.50;99.90
41816;DHT22;27814;53.452;-6.180;2022-11-20T08:29:09;8.60;99.90
41816;DHT22;27814;53.452;-6.180;2022-11-20T08:31:37;8.60;99.90
41816;DHT22;27814;53.452;-6.180;2022-11-20T08:34:06;8.60;99.90
41816;DHT22;27814;53.452;-6.180;2022-11-20T08:36:36;8.60;99.90
41816;DHT22;27814;53.452;-6.180;2022-11-20T08:39:05;8.70;99.90
41816;DHT22;27814;53.452;-6.180;2022-11-20T08:41:33;8.70;99.90
41816;DHT22;27814;53.452;-6.180;2022-11-20T08:44:05;8.70;99.90
41816;DHT22;27814;53.452;-6.180;2022-11-20T08:46:36;8.80;99.90
41816;DHT22;27814;53.452;-6.180;2022-11-20T08:49:07;8.90;99.90
41816;DHT22;27814;53.452;-6.180;2022-11-20T08:51:36;8.90;99.90
41816;DHT22;27814;53.452;-6.180;2022-11-20T08:54:05;9.00;99.90
41816;DHT22;27814;53.452;-6.180;2022-11-20T08:56:34;9.00;99.90
41816;DHT22;27814;53.452;-6.180;2022-11-20T08:59:02;9.00;99.90
41816;DHT22;27814;53.452;-6.180;2022-11-20T09:01:52;9.10;99.90
41816;DHT22;27814;53.452;-6.180;2022-11-20T09:04:21;9.10;99.90
41816;DHT22;27814;53.452;-6.180;2022-11-20T09:06:49;9.10;99.90
41816;DHT22;27814;53.452;-6.180;2022-11-20T09:09:18;9.10;99.90
41816;DHT22;27814;53.452;-6.180;2022-11-20T09:11:47;9.10;99.90
41816;DHT22;27814;53.452;-6.180;2022-11-20T09:14:16;9.20;99.90
41816;DHT22;27814;53.452;-6.180;2022-11-20T09:16:45;9.20;99.90
41816;DHT22;27814;53.452;-6.180;2022-11-20T09:19:15;9.20;99.90
41816;DHT22;27814;53.452;-6.180;2022-11-20T09:22:01;9.20;99.90
41816;DHT22;27814;53.452;-6.180;2022-11-20T09:24:29;9.30;99.90
41816;DHT22;27814;53.452;-6.180;2022-11-20T09:27:00;9.30;99.90
41816;DHT22;27814;53.452;-6.180;2022-11-20T09:29:29;9.20;99.90
41816;DHT22;27814;53.452;-6.180;2022-11-20T09:31:57;9.30;99.90
41816;DHT22;27814;53.452;-6.180;2022-11-20T09:34:27;9.30;99.90
41816;DHT22;27814;53.452;-6.180;2022-11-20T09:36:55;9.30;99.90
41816;DHT22;27814;53.452;-6.180;2022-11-20T09:39:30;9.30;99.90
41816;DHT22;27814;53.452;-6.180;2022-11-20T09:42:22;9.30;99.90
41816;DHT22;27814;53.452;-6.180;2022-11-20T09:45:15;9.30;99.90
41816;DHT22;27814;53.452;-6.180;2022-11-20T09:50:44;9.30;99.90
41816;DHT22;27814;53.452;-6.180;2022-11-20T09:53:23;9.30;99.90
41816;DHT22;27814;53.452;-6.180;2022-11-20T09:55:53;9.40;99.90
41816;DHT22;27814;53.452;-6.180;2022-11-20T09:58:28;9.40;99.90
41816;DHT22;27814;53.452;-6.180;2022-11-20T10:01:03;9.50;99.90
41816;DHT22;27814;53.452;-6.180;2022-11-20T10:03:41;9.50;99.90
41816;DHT22;27814;53.452;-6.180;2022-11-20T10:06:16;9.50;99.90
41816;DHT22;27814;53.452;-6.180;2022-11-20T10:08:47;9.50;99.90
41816;DHT22;27814;53.452;-6.180;2022-11-20T10:11:27;9.60;99.90
41816;DHT22;27814;53.452;-6.180;2022-11-20T10:14:10;9.60;99.90
41816;DHT22;27814;53.452;-6.180;2022-11-20T10:16:46;9.60;99.90
41816;DHT22;27814;53.452;-6.180;2022-11-20T10:19:32;9.60;99.90
41816;DHT22;27814;53.452;-6.180;2022-11-20T10:22:14;9.60;99.90
41816;DHT22;27814;53.452;-6.180;2022-11-20T10:24:56;9.70;99.90
41816;DHT22;27814;53.452;-6.180;2022-11-20T10:30:27;9.70;99.90
41816;DHT22;27814;53.452;-6.180;2022-11-20T10:33:03;9.70;99.90
41816;DHT22;27814;53.452;-6.180;2022-11-20T10:35:35;9.80;99.90
41816;DHT22;27814;53.452;-6.180;2022-11-20T10:38:13;9.80;99.90
41816;DHT22;27814;53.452;-6.180;2022-11-20T10:40:46;9.80;99.90
41816;DHT22;27814;53.452;-6.180;2022-11-20T10:43:18;9.80;99.90
41816;DHT22;27814;53.452;-6.180;2022-11-20T10:45:52;9.80;99.90
41816;DHT22;27814;53.452;-6.180;2022-11-20T10:48:24;9.80;99.90
41816;DHT22;27814;53.452;-6.180;2022-11-20T10:50:59;9.80;99.90
41816;DHT22;27814;53.452;-6.180;2022-11-20T10:53:44;9.80;99.90
41816;DHT22;27814;53.452;-6.180;2022-11-20T10:56:19;9.80;99.90
41816;DHT22;27814;53.452;-6.180;2022-11-20T10:58:59;9.90;99.90
41816;DHT22;27814;53.452;-6.180;2022-11-20T11:01:28;9.80;99.90
41816;DHT22;27814;53.452;-6.180;2022-11-20T11:03:57;9.90;99.90
41816;DHT22;27814;53.452;-6.180;2022-11-20T11:06:33;9.90;99.90
41816;DHT22;27814;53.452;-6.180;2022-11-20T11:09:13;9.90;99.90
41816;DHT22;27814;53.452;-6.180;2022-11-20T11:11:43;10.00;99.90
41816;DHT22;27814;53.452;-6.180;2022-11-20T11:14:14;10.00;99.90
41816;DHT22;27814;53.452;-6.180;2022-11-20T11:16:49;10.00;99.90
41816;DHT22;27814;53.452;-6.180;2022-11-20T11:19:18;10.00;99.90
41816;DHT22;27814;53.452;-6.180;2022-11-20T11:21:49;10.00;99.90
41816;DHT22;27814;53.452;-6.180;2022-11-20T11:24:24;10.00;99.90
41816;DHT22;27814;53.452;-6.180;2022-11-20T11:27:12;10.00;99.90
41816;DHT22;27814;53.452;-6.180;2022-11-20T11:29:45;10.00;99.90
41816;DHT22;27814;53.452;-6.180;2022-11-20T11:32:15;10.00;99.90
41816;DHT22;27814;53.452;-6.180;2022-11-20T11:34:44;10.10;99.90
41816;DHT22;27814;53.452;-6.180;2022-11-20T11:37:17;10.20;99.90
41816;DHT22;27814;53.452;-6.180;2022-11-20T11:39:48;10.20;99.90
41816;DHT22;27814;53.452;-6.180;2022-11-20T11:42:42;10.20;99.90
41816;DHT22;27814;53.452;-6.180;2022-11-20T11:45:14;10.20;99.90
41816;DHT22;27814;53.452;-6.180;2022-11-20T11:47:46;10.20;99.90
41816;DHT22;27814;53.452;-6.180;2022-11-20T11:50:18;10.20;99.90
41816;DHT22;27814;53.452;-6.180;2022-11-20T11:52:54;10.20;99.90
41816;DHT22;27814;53.452;-6.180;2022-11-20T11:55:41;10.20;99.90
41816;DHT22;27814;53.452;-6.180;2022-11-20T11:58:20;10.20;99.90
41816;DHT22;27814;53.452;-6.180;2022-11-20T12:00:57;10.20;99.90
41816;DHT22;27814;53.452;-6.180;2022-11-20T12:03:29;10.20;99.90
41816;DHT22;27814;53.452;-6.180;2022-11-20T12:06:06;10.30;99.90
41816;DHT22;27814;53.452;-6.180;2022-11-20T12:08:42;10.30;99.90
41816;DHT22;27814;53.452;-6.180;2022-11-20T12:11:23;10.30;99.90
41816;DHT22;27814;53.452;-6.180;2022-11-20T12:13:55;10.20;99.90
41816;DHT22;27814;53.452;-6.180;2022-11-20T12:16:30;10.20;99.90
41816;DHT22;27814;53.452;-6.180;2022-11-20T12:19:07;10.10;99.90
41816;DHT22;27814;53.452;-6.180;2022-11-20T12:21:44;10.00;99.90
41816;DHT22;27814;53.452;-6.180;2022-11-20T12:24:35;10.00;99.90
41816;DHT22;27814;53.452;-6.180;2022-11-20T12:27:28;9.90;99.90
41816;DHT22;27814;53.452;-6.180;2022-11-20T12:30:06;9.90;99.90
41816;DHT22;27814;53.452;-6.180;2022-11-20T12:36:01;9.90;99.90
41816;DHT22;27814;53.452;-6.180;2022-11-20T12:38:55;9.90;99.90
41816;DHT22;27814;53.452;-6.180;2022-11-20T12:41:43;9.90;99.90
41816;DHT22;27814;53.452;-6.180;2022-11-20T12:45:06;9.90;99.90
41816;DHT22;27814;53.452;-6.180;2022-11-20T12:47:59;9.90;99.90
41816;DHT22;27814;53.452;-6.180;2022-11-20T12:50:38;9.90;99.90
41816;DHT22;27814;53.452;-6.180;2022-11-20T12:53:33;9.90;99.90
41816;DHT22;27814;53.452;-6.180;2022-11-20T12:56:09;10.00;99.90
41816;DHT22;27814;53.452;-6.180;2022-11-20T12:58:44;10.00;99.90
41816;DHT22;27814;53.452;-6.180;2022-11-20T13:01:25;10.00;99.90
41816;DHT22;27814;53.452;-6.180;2022-11-20T13:04:24;10.10;99.90
41816;DHT22;27814;53.452;-6.180;2022-11-20T13:06:59;10.10;99.90
41816;DHT22;27814;53.452;-6.180;2022-11-20T13:09:29;10.10;99.90
41816;DHT22;27814;53.452;-6.180;2022-11-20T13:12:02;10.10;99.90
41816;DHT22;27814;53.452;-6.180;2022-11-20T13:14:37;10.20;99.90
41816;DHT22;27814;53.452;-6.180;2022-11-20T13:17:14;10.20;99.90
41816;DHT22;27814;53.452;-6.180;2022-11-20T13:19:48;10.30;99.90
41816;DHT22;27814;53.452;-6.180;2022-11-20T13:22:24;10.30;99.90
41816;DHT22;27814;53.452;-6.180;2022-11-20T13:24:53;10.30;99.90
41816;DHT22;27814;53.452;-6.180;2022-11-20T13:27:22;10.30;99.90
41816;DHT22;27814;53.452;-6.180;2022-11-20T13:30:10;10.40;99.90
41816;DHT22;27814;53.452;-6.180;2022-11-20T13:32:53;10.30;99.90
41816;DHT22;27814;53.452;-6.180;2022-11-20T13:35:30;10.40;99.90
41816;DHT22;27814;53.452;-6.180;2022-11-20T13:38:04;10.40;99.90
41816;DHT22;27814;53.452;-6.180;2022-11-20T13:40:34;10.40;99.90
41816;DHT22;27814;53.452;-6.180;2022-11-20T13:43:20;10.40;99.90
41816;DHT22;27814;53.452;-6.180;2022-11-20T13:45:57;10.50;99.90
41816;DHT22;27814;53.452;-6.180;2022-11-20T13:48:31;10.50;99.90
41816;DHT22;27814;53.452;-6.180;2022-11-20T13:51:15;10.50;99.90
41816;DHT22;27814;53.452;-6.180;2022-11-20T13:54:14;10.50;99.90
41816;DHT22;27814;53.452;-6.180;2022-11-20T13:56:54;10.60;99.90
41816;DHT22;27814;53.452;-6.180;2022-11-20T13:59:38;10.60;99.90
41816;DHT22;27814;53.452;-6.180;2022-11-20T14:02:11;10.70;99.90
41816;DHT22;27814;53.452;-6.180;2022-11-20T14:04:45;10.70;99.90
41816;DHT22;27814;53.452;-6.180;2022-11-20T14:07:15;10.70;99.90
41816;DHT22;27814;53.452;-6.180;2022-11-20T14:09:50;10.70;99.90
41816;DHT22;27814;53.452;-6.180;2022-11-20T14:12:23;10.70;99.90
41816;DHT22;27814;53.452;-6.180;2022-11-20T14:14:53;10.80;99.90
41816;DHT22;27814;53.452;-6.180;2022-11-20T14:17:24;10.80;99.90
41816;DHT22;27814;53.452;-6.180;2022-11-20T14:20:00;10.80;99.90
41816;DHT22;27814;53.452;-6.180;2022-11-20T14:22:29;10.80;99.90
41816;DHT22;27814;53.452;-6.180;2022-11-20T14:25:05;10.90;99.90
41816;DHT22;27814;53.452;-6.180;2022-11-20T14:27:35;10.90;99.90
41816;DHT22;27814;53.452;-6.180;2022-11-20T14:30:11;10.90;99.90
41816;DHT22;27814;53.452;-6.180;2022-11-20T14:32:41;10.90;99.90
41816;DHT22;27814;53.452;-6.180;2022-11-20T14:35:17;10.90;99.90
41816;DHT22;27814;53.452;-6.180;2022-11-20T14:37:48;11.00;99.90
41816;DHT22;27814;53.452;-6.180;2022-11-20T14:40:28;10.90;99.90
41816;DHT22;27814;53.452;-6.180;2022-11-20T14:42:58;10.90;99.90
41816;DHT22;27814;53.452;-6.180;2022-11-20T14:45:27;10.90;99.90
41816;DHT22;27814;53.452;-6.180;2022-11-20T14:47:58;10.80;99.90
41816;DHT22;27814;53.452;-6.180;2022-11-20T14:50:29;10.80;99.90
41816;DHT22;27814;53.452;-6.180;2022-11-20T14:52:59;10.70;99.90
41816;DHT22;27814;53.452;-6.180;2022-11-20T14:55:30;10.70;99.90
41816;DHT22;27814;53.452;-6.180;2022-11-20T14:58:00;10.70;99.90
41816;DHT22;27814;53.452;-6.180;2022-11-20T15:00:31;10.70;99.90
41816;DHT22;27814;53.452;-6.180;2022-11-20T15:02:59;10.70;99.90
41816;DHT22;27814;53.452;-6.180;2022-11-20T15:05:46;10.70;99.90
41816;DHT22;27814;53.452;-6.180;2022-11-20T15:08:16;10.70;99.90
41816;DHT22;27814;53.452;-6.180;2022-11-20T15:10:46;10.70;99.90
41816;DHT22;27814;53.452;-6.180;2022-11-20T15:13:17;10.70;99.90
41816;DHT22;27814;53.452;-6.180;2022-11-20T15:15:49;10.70;99.90
41816;DHT22;27814;53.452;-6.180;2022-11-20T15:18:20;10.70;99.90
41816;DHT22;27814;53.452;-6.180;2022-11-20T15:20:51;10.70;99.90
41816;DHT22;27814;53.452;-6.180;2022-11-20T15:23:19;10.70;99.90
41816;DHT22;27814;53.452;-6.180;2022-11-20T15:25:48;10.60;99.90
41816;DHT22;27814;53.452;-6.180;2022-11-20T15:28:19;10.60;99.90
41816;DHT22;27814;53.452;-6.180;2022-11-20T15:30:49;10.60;99.90
41816;DHT22;27814;53.452;-6.180;2022-11-20T15:33:18;10.50;99.90
41816;DHT22;27814;53.452;-6.180;2022-11-20T15:35:47;10.50;99.90
41816;DHT22;27814;53.452;-6.180;2022-11-20T15:38:16;10.40;99.90
41816;DHT22;27814;53.452;-6.180;2022-11-20T15:40:45;10.30;99.90
41816;DHT22;27814;53.452;-6.180;2022-11-20T15:43:13;10.30;99.90
41816;DHT22;27814;53.452;-6.180;2022-11-20T15:45:43;10.20;99.90
41816;DHT22;27814;53.452;-6.180;2022-11-20T15:48:15;10.20;99.90
41816;DHT22;27814;53.452;-6.180;2022-11-20T15:50:50;10.20;99.90
41816;DHT22;27814;53.452;-6.180;2022-11-20T15:53:22;10.10;99.90
41816;DHT22;27814;53.452;-6.180;2022-11-20T15:55:50;10.00;99.90
41816;DHT22;27814;53.452;-6.180;2022-11-20T15:58:18;10.00;99.90
41816;DHT22;27814;53.452;-6.180;2022-11-20T16:00:47;10.00;99.90
41816;DHT22;27814;53.452;-6.180;2022-11-20T16:03:15;10.00;99.90
41816;DHT22;27814;53.452;-6.180;2022-11-20T16:05:44;9.80;99.90
41816;DHT22;27814;53.452;-6.180;2022-11-20T16:08:13;9.80;99.90